Time;durP1;ratioP1;P1;durP2;ratioP2;P2;SDS_P1;SDS_P2;PMS_P1;PMS_P2;Temp;Humidity;BMP_temperature;BMP_pressure;BME280_temperature;BME280_humidity;BME280_pressure;Samples;Min_cycle;Max_cycle;Signal;HPM_P1;HPM_P2
2021/08/29 00:01:24;;;;;;;6.45;2.55;;;16.30;99.90;;;;;;4917507;28;38331;-77
2021/08/29 00:03:50;;;;;;;7.55;2.92;;;16.20;99.90;;;;;;4925471;28;38152;-77
2021/08/29 00:06:16;;;;;;;9.00;2.90;;;16.20;99.90;;;;;;4923220;28;35779;-78
2021/08/29 00:08:42;;;;;;;10.40;3.13;;;16.30;99.90;;;;;;4918448;28;38616;-77
2021/08/29 00:11:08;;;;;;;7.70;2.42;;;16.30;99.90;;;;;;4917008;28;38771;-77
2021/08/29 00:13:34;;;;;;;10.23;2.88;;;16.30;99.90;;;;;;4914901;29;38505;-77
2021/08/29 00:16:01;;;;;;;6.88;3.35;;;16.20;99.90;;;;;;4917284;28;38099;-78
2021/08/29 00:18:27;;;;;;;8.43;2.90;;;16.20;99.90;;;;;;4916245;28;38917;-77
2021/08/29 00:20:53;;;;;;;6.00;3.28;;;16.20;99.90;;;;;;4900033;29;39812;-77
2021/08/29 00:23:19;;;;;;;11.38;2.97;;;16.20;99.90;;;;;;4918648;28;38201;-77
2021/08/29 00:25:45;;;;;;;8.65;3.30;;;16.10;99.90;;;;;;4918660;28;37304;-77
2021/08/29 00:28:11;;;;;;;11.57;3.30;;;16.10;99.90;;;;;;4922793;28;40298;-77
2021/08/29 00:30:37;;;;;;;7.38;3.40;;;16.10;99.90;;;;;;4919866;28;39456;-78
2021/08/29 00:33:03;;;;;;;8.95;3.92;;;16.10;99.90;;;;;;4916343;28;39934;-77
2021/08/29 00:35:30;;;;;;;10.95;3.35;;;16.00;99.90;;;;;;4901101;29;38828;-78
2021/08/29 00:37:56;;;;;;;9.43;3.67;;;15.90;99.90;;;;;;4919481;28;36893;-78
2021/08/29 00:40:22;;;;;;;11.85;3.25;;;15.80;99.90;;;;;;4920533;28;39305;-78
2021/08/29 00:42:51;;;;;;;10.65;3.50;;;15.80;99.90;;;;;;4903422;29;38279;-78
2021/08/29 00:45:21;;;;;;;10.60;3.50;;;15.80;99.90;;;;;;4916641;28;37990;-78
2021/08/29 00:47:47;;;;;;;9.50;3.47;;;15.70;99.90;;;;;;4920097;28;39503;-78
2021/08/29 00:50:15;;;;;;;7.15;3.90;;;15.70;99.90;;;;;;4915139;28;38799;-77
2021/08/29 00:52:41;;;;;;;9.07;3.45;;;15.60;99.90;;;;;;4900738;29;39425;-78
2021/08/29 00:55:09;;;;;;;9.98;3.47;;;15.60;99.90;;;;;;4919007;28;38388;-78
2021/08/29 00:57:40;;;;;;;9.52;3.85;;;15.60;99.90;;;;;;4918367;28;39463;-78
2021/08/29 01:00:09;;;;;;;9.70;3.70;;;15.60;99.90;;;;;;4918352;28;38680;-77
2021/08/29 01:02:35;;;;;;;13.43;4.22;;;15.60;99.90;;;;;;4916997;28;47674;-78
2021/08/29 01:05:21;;;;;;;11.63;4.22;;;15.60;99.90;;;;;;4920513;28;36958;-77
2021/08/29 01:07:52;;;;;;;10.88;4.18;;;15.70;99.90;;;;;;4914685;28;48109;-77
2021/08/29 01:10:23;;;;;;;9.52;3.90;;;15.70;99.90;;;;;;4901931;29;38702;-78
2021/08/29 01:12:50;;;;;;;13.13;4.33;;;15.70;99.90;;;;;;4918713;28;40203;-77
2021/08/29 01:15:21;;;;;;;11.50;3.30;;;15.70;99.90;;;;;;4920622;28;37866;-77
2021/08/29 01:17:48;;;;;;;10.43;4.32;;;15.80;99.90;;;;;;4919160;28;38755;-77
2021/08/29 01:20:25;;;;;;;9.90;3.83;;;15.70;99.90;;;;;;4897799;28;37766;-77
2021/08/29 01:22:52;;;;;;;13.25;4.18;;;15.70;99.90;;;;;;4915944;28;38024;-78
2021/08/29 01:25:24;;;;;;;8.32;3.13;;;15.80;99.90;;;;;;4916547;28;37331;-77
2021/08/29 01:27:57;;;;;;;11.30;3.95;;;15.80;99.90;;;;;;4902973;28;40015;-77
2021/08/29 01:30:24;;;;;;;8.15;3.45;;;15.80;99.90;;;;;;4913558;28;38745;-77
2021/08/29 01:32:51;;;;;;;9.98;3.70;;;15.80;99.90;;;;;;4914773;28;39630;-78
2021/08/29 01:35:17;;;;;;;9.20;3.80;;;15.90;99.90;;;;;;4913580;28;36954;-78
2021/08/29 01:37:44;;;;;;;10.00;3.50;;;15.90;99.90;;;;;;4926178;28;38603;-77
2021/08/29 01:40:11;;;;;;;8.65;3.17;;;15.90;99.90;;;;;;4903972;28;39026;-78
2021/08/29 01:42:38;;;;;;;8.40;3.10;;;15.90;99.90;;;;;;4921508;28;38046;-77
2021/08/29 01:45:04;;;;;;;5.90;3.17;;;15.90;99.90;;;;;;4920643;28;37837;-74
2021/08/29 01:47:31;;;;;;;7.78;3.05;;;15.90;99.90;;;;;;4922197;28;39009;-78
2021/08/29 01:49:58;;;;;;;7.60;3.25;;;15.90;99.90;;;;;;4920253;28;39474;-77
2021/08/29 01:52:24;;;;;;;9.98;3.42;;;15.90;99.90;;;;;;4902668;28;38160;-78
2021/08/29 01:54:50;;;;;;;7.45;2.85;;;15.90;99.90;;;;;;4903210;28;38859;-77
2021/08/29 01:57:16;;;;;;;9.07;3.13;;;15.90;99.90;;;;;;4918829;28;38285;-77
2021/08/29 01:59:44;;;;;;;6.10;3.17;;;15.90;99.90;;;;;;4916865;28;37228;-78
2021/08/29 02:02:12;;;;;;;4.85;2.72;;;15.90;99.90;;;;;;4918081;28;38516;-77
2021/08/29 02:04:40;;;;;;;6.78;2.78;;;15.90;99.90;;;;;;4919539;29;37375;-78
2021/08/29 02:07:18;;;;;;;7.82;3.30;;;15.90;99.90;;;;;;4905381;28;38170;-77
2021/08/29 02:09:49;;;;;;;6.57;3.55;;;16.00;99.90;;;;;;4921497;28;39609;-77
2021/08/29 02:12:16;;;;;;;5.90;2.95;;;16.00;99.90;;;;;;4919486;28;38682;-77
2021/08/29 02:14:51;;;;;;;7.55;3.20;;;16.00;99.90;;;;;;4925188;29;37942;-77
2021/08/29 02:17:20;;;;;;;7.60;3.28;;;16.00;99.90;;;;;;4919625;28;39323;-77
2021/08/29 02:19:47;;;;;;;7.13;3.13;;;15.90;99.90;;;;;;4906481;29;38052;-77
2021/08/29 02:22:13;;;;;;;8.35;3.20;;;15.90;99.90;;;;;;4924460;29;38141;-77
2021/08/29 02:24:41;;;;;;;4.82;3.22;;;15.80;99.90;;;;;;4918773;28;37403;-77
2021/08/29 02:27:09;;;;;;;6.82;2.85;;;15.80;99.90;;;;;;4925006;29;39400;-77
2021/08/29 02:29:36;;;;;;;7.85;3.58;;;15.80;99.90;;;;;;4919930;29;37895;-77
2021/08/29 02:32:02;;;;;;;8.20;3.13;;;15.80;99.90;;;;;;4913469;28;39343;-77
2021/08/29 02:34:29;;;;;;;11.95;3.72;;;15.80;99.90;;;;;;4915393;28;37086;-77
2021/08/29 02:36:57;;;;;;;8.95;3.67;;;15.80;99.90;;;;;;4915351;28;41522;-77
2021/08/29 02:39:25;;;;;;;6.22;3.78;;;15.80;99.90;;;;;;4913945;28;38615;-77
2021/08/29 02:41:51;;;;;;;7.85;3.58;;;15.80;99.90;;;;;;4924793;28;38036;-77
2021/08/29 02:44:19;;;;;;;7.47;4.15;;;15.80;99.90;;;;;;4920544;28;36959;-77
2021/08/29 02:46:48;;;;;;;7.32;3.28;;;15.80;99.90;;;;;;4917418;28;39686;-78
2021/08/29 02:49:15;;;;;;;6.13;3.50;;;15.80;99.90;;;;;;4920655;28;38236;-77
2021/08/29 02:51:41;;;;;;;6.68;3.47;;;15.70;99.90;;;;;;4905050;28;37376;-78
2021/08/29 02:54:07;;;;;;;5.78;3.08;;;15.70;99.90;;;;;;4925254;28;36466;-77
2021/08/29 02:56:34;;;;;;;7.72;3.55;;;15.70;99.90;;;;;;4926061;29;38165;-77
2021/08/29 02:59:00;;;;;;;7.28;3.28;;;15.80;99.90;;;;;;4929429;28;38174;-77
2021/08/29 03:01:26;;;;;;;7.40;2.90;;;15.80;99.90;;;;;;4926469;28;39550;-78
2021/08/29 03:03:52;;;;;;;7.47;3.10;;;15.80;99.90;;;;;;4911493;29;37062;-77
2021/08/29 03:06:19;;;;;;;5.15;3.00;;;15.80;99.90;;;;;;4910292;29;40756;-78
2021/08/29 03:08:46;;;;;;;10.82;4.22;;;15.80;99.90;;;;;;4925160;28;38413;-77
2021/08/29 03:11:12;;;;;;;10.95;3.63;;;15.80;99.90;;;;;;4924458;28;37669;-77
2021/08/29 03:13:39;;;;;;;7.25;3.15;;;15.80;99.90;;;;;;4921331;29;36210;-78
2021/08/29 03:16:05;;;;;;;5.95;3.38;;;15.90;99.90;;;;;;4919761;28;39870;-77
2021/08/29 03:18:33;;;;;;;7.53;3.72;;;15.90;99.90;;;;;;4900703;28;38929;-78
2021/08/29 03:20:59;;;;;;;7.00;3.22;;;15.90;99.90;;;;;;4919569;28;38041;-77
2021/08/29 03:23:25;;;;;;;11.05;3.47;;;15.90;99.90;;;;;;4917553;28;36710;-78
2021/08/29 03:25:51;;;;;;;9.85;3.85;;;15.90;99.90;;;;;;4908686;29;39116;-78
2021/08/29 03:28:18;;;;;;;5.25;3.05;;;15.90;99.90;;;;;;4923278;28;37991;-78
2021/08/29 03:30:44;;;;;;;7.38;3.30;;;15.90;99.90;;;;;;4920736;28;38417;-77
2021/08/29 03:33:10;;;;;;;7.57;3.45;;;15.90;99.90;;;;;;4917416;28;37382;-78
2021/08/29 03:35:36;;;;;;;7.35;3.53;;;15.90;99.90;;;;;;4923950;28;39843;-77
2021/08/29 03:38:03;;;;;;;7.15;3.45;;;15.90;99.90;;;;;;4920022;28;38458;-77
2021/08/29 03:40:30;;;;;;;10.85;3.65;;;15.90;99.90;;;;;;4915988;28;38295;-77
2021/08/29 03:42:56;;;;;;;8.10;3.13;;;16.00;99.90;;;;;;4900404;29;37863;-78
2021/08/29 03:45:23;;;;;;;7.28;3.30;;;15.90;99.90;;;;;;4918713;29;37745;-78
2021/08/29 03:47:49;;;;;;;10.07;3.28;;;16.00;99.90;;;;;;4922007;29;37262;-77
2021/08/29 03:50:16;;;;;;;6.43;3.25;;;16.00;99.90;;;;;;4915101;29;37210;-77
2021/08/29 03:52:42;;;;;;;9.15;3.20;;;16.00;99.90;;;;;;4903548;29;36900;-77
2021/08/29 03:55:09;;;;;;;6.70;3.05;;;16.00;99.90;;;;;;4922965;29;39509;-77
2021/08/29 03:57:37;;;;;;;9.50;3.17;;;16.00;99.90;;;;;;4919852;28;38371;-78
2021/08/29 04:00:04;;;;;;;6.40;3.50;;;16.00;99.90;;;;;;4922548;28;38102;-78
2021/08/29 04:02:31;;;;;;;12.23;3.35;;;16.00;99.90;;;;;;4913350;28;38556;-78
2021/08/29 04:04:57;;;;;;;8.48;3.00;;;16.10;99.90;;;;;;4921401;29;39158;-77
2021/08/29 04:07:26;;;;;;;10.50;3.72;;;16.10;99.90;;;;;;4917065;28;39476;-78
2021/08/29 04:09:53;;;;;;;9.80;3.28;;;16.10;99.90;;;;;;4920328;28;38867;-77
2021/08/29 04:12:24;;;;;;;10.55;3.10;;;16.10;99.90;;;;;;4921394;28;36972;-77
2021/08/29 04:14:50;;;;;;;7.45;2.70;;;16.20;99.90;;;;;;4921011;28;37438;-77
2021/08/29 04:17:16;;;;;;;7.57;2.95;;;16.10;99.90;;;;;;4923888;28;39540;-77
2021/08/29 04:19:43;;;;;;;8.05;2.72;;;16.20;99.90;;;;;;4905841;28;38295;-78
2021/08/29 04:22:10;;;;;;;6.90;2.75;;;16.20;99.90;;;;;;4904611;29;37618;-78
2021/08/29 04:24:37;;;;;;;11.18;3.28;;;16.20;99.90;;;;;;4929852;28;39199;-77
2021/08/29 04:27:03;;;;;;;9.15;3.15;;;16.20;99.90;;;;;;4924806;28;38921;-77
2021/08/29 04:29:29;;;;;;;10.15;3.25;;;16.20;99.90;;;;;;4909139;29;38799;-77
2021/08/29 04:31:58;;;;;;;7.68;2.60;;;16.20;99.90;;;;;;4917984;28;37503;-77
2021/08/29 04:34:23;;;;;;;9.27;2.78;;;16.20;99.90;;;;;;4917846;28;39817;-77
2021/08/29 04:36:50;;;;;;;8.02;3.42;;;16.20;99.90;;;;;;4917905;28;38590;-78
2021/08/29 04:39:16;;;;;;;7.82;3.35;;;16.10;99.90;;;;;;4922890;28;39083;-77
2021/08/29 04:41:42;;;;;;;8.15;2.83;;;16.10;99.90;;;;;;4924664;28;37486;-78
2021/08/29 04:44:10;;;;;;;8.38;3.08;;;16.20;99.90;;;;;;4908903;29;40516;-77
2021/08/29 04:46:37;;;;;;;9.85;3.05;;;16.20;99.90;;;;;;4905322;29;37934;-78
2021/08/29 04:49:03;;;;;;;9.05;3.13;;;16.20;99.90;;;;;;4901225;29;36390;-77
2021/08/29 04:51:30;;;;;;;6.95;3.10;;;16.10;99.90;;;;;;4920875;28;39007;-77
2021/08/29 04:53:56;;;;;;;7.78;2.90;;;16.20;99.90;;;;;;4918445;28;38801;-78
2021/08/29 04:56:22;;;;;;;6.25;2.75;;;16.10;99.90;;;;;;4904578;29;38263;-77
2021/08/29 04:58:49;;;;;;;6.93;2.60;;;16.10;99.90;;;;;;4922642;28;38757;-78
2021/08/29 05:01:17;;;;;;;8.35;2.55;;;16.10;99.90;;;;;;4918149;28;36917;-78
2021/08/29 05:03:43;;;;;;;11.30;3.05;;;16.10;99.90;;;;;;4923885;28;39133;-77
2021/08/29 05:06:11;;;;;;;8.50;2.65;;;16.10;99.90;;;;;;4918868;28;38520;-78
2021/08/29 05:08:37;;;;;;;7.57;2.72;;;16.10;99.90;;;;;;4897321;29;39388;-77
2021/08/29 05:11:03;;;;;;;8.88;2.78;;;16.10;99.90;;;;;;4899603;28;38641;-77
2021/08/29 05:13:29;;;;;;;8.20;2.75;;;16.10;99.90;;;;;;4905948;28;39207;-77
2021/08/29 05:15:56;;;;;;;7.35;2.75;;;16.20;99.90;;;;;;4919344;28;38451;-77
2021/08/29 05:18:22;;;;;;;6.32;2.45;;;16.20;99.90;;;;;;4920997;28;38540;-77
2021/08/29 05:20:48;;;;;;;13.43;2.97;;;16.20;99.90;;;;;;4906249;28;37823;-77
2021/08/29 05:23:14;;;;;;;6.80;2.10;;;16.20;99.90;;;;;;4920394;28;38925;-77
2021/08/29 05:25:40;;;;;;;8.77;2.22;;;16.20;99.90;;;;;;4923255;28;37931;-77
2021/08/29 05:28:06;;;;;;;10.10;2.72;;;16.30;99.90;;;;;;4927618;28;38259;-77
2021/08/29 05:30:32;;;;;;;10.77;2.70;;;16.30;99.90;;;;;;4923627;28;37876;-77
2021/08/29 05:32:58;;;;;;;9.82;2.70;;;16.30;99.90;;;;;;4925324;28;38621;-77
2021/08/29 05:35:25;;;;;;;7.70;2.40;;;16.30;99.90;;;;;;4901395;28;37995;-77
2021/08/29 05:37:51;;;;;;;10.30;3.25;;;16.30;99.90;;;;;;4918418;28;38130;-77
2021/08/29 05:40:17;;;;;;;8.25;2.60;;;16.30;99.90;;;;;;4914748;28;37793;-78
2021/08/29 05:42:43;;;;;;;9.75;2.20;;;16.30;99.90;;;;;;4919934;28;38853;-77
2021/08/29 05:45:09;;;;;;;11.77;2.40;;;16.30;99.90;;;;;;4918697;28;37118;-77
2021/08/29 05:47:35;;;;;;;7.05;2.47;;;16.40;99.90;;;;;;4921913;28;39868;-78
2021/08/29 05:50:02;;;;;;;7.40;2.08;;;16.40;99.90;;;;;;4902826;28;37669;-77
2021/08/29 05:52:28;;;;;;;8.05;2.75;;;16.40;99.90;;;;;;4925920;28;38822;-78
2021/08/29 05:54:54;;;;;;;8.70;2.60;;;16.50;99.90;;;;;;4906710;28;37295;-78
2021/08/29 05:57:20;;;;;;;8.32;2.90;;;16.50;99.90;;;;;;4906266;28;37240;-78
2021/08/29 05:59:46;;;;;;;11.75;3.08;;;16.50;99.90;;;;;;4899016;28;41249;-77
2021/08/29 06:02:12;;;;;;;6.97;2.40;;;16.50;99.90;;;;;;4916434;28;38668;-77
2021/08/29 06:04:41;;;;;;;9.32;2.33;;;16.50;99.90;;;;;;4920545;28;38847;-77
2021/08/29 06:07:08;;;;;;;8.95;2.60;;;16.60;99.90;;;;;;4918230;28;39139;-78
2021/08/29 06:09:34;;;;;;;7.80;2.85;;;16.60;99.90;;;;;;4920589;28;37124;-78
2021/08/29 06:12:01;;;;;;;8.95;2.83;;;16.60;99.90;;;;;;4900474;28;39101;-78
2021/08/29 06:14:28;;;;;;;9.77;3.15;;;16.60;99.90;;;;;;4917317;28;48800;-78
2021/08/29 06:16:54;;;;;;;9.82;2.63;;;16.60;99.90;;;;;;4916452;28;37847;-78
2021/08/29 06:19:20;;;;;;;8.68;2.60;;;16.60;99.90;;;;;;4914656;28;37093;-77
2021/08/29 06:21:46;;;;;;;7.03;2.40;;;16.70;99.90;;;;;;4918336;28;38683;-78
2021/08/29 06:24:12;;;;;;;9.85;3.08;;;16.60;99.90;;;;;;4919461;28;39130;-78
2021/08/29 06:26:38;;;;;;;7.28;2.45;;;16.70;99.90;;;;;;4918995;28;38002;-77
2021/08/29 06:29:04;;;;;;;10.68;2.78;;;16.70;99.90;;;;;;4924597;28;36891;-77
2021/08/29 06:31:30;;;;;;;12.30;3.10;;;16.70;99.90;;;;;;4907526;29;46906;-78
2021/08/29 06:33:56;;;;;;;9.00;2.78;;;16.70;99.90;;;;;;4917656;28;38868;-78
2021/08/29 06:36:22;;;;;;;9.73;3.22;;;16.70;99.90;;;;;;4914894;28;38668;-78
2021/08/29 06:38:49;;;;;;;6.38;2.40;;;16.80;99.90;;;;;;4917990;28;37896;-78
2021/08/29 06:41:15;;;;;;;9.07;2.70;;;16.80;99.90;;;;;;4924207;28;39741;-77
2021/08/29 06:43:41;;;;;;;15.27;3.45;;;16.80;99.90;;;;;;4901909;28;38950;-78
2021/08/29 06:46:07;;;;;;;8.88;2.88;;;16.80;99.90;;;;;;4921291;28;38815;-78
2021/08/29 06:48:33;;;;;;;7.20;2.50;;;16.80;99.90;;;;;;4917140;28;37201;-78
2021/08/29 06:50:59;;;;;;;9.65;2.60;;;16.90;99.90;;;;;;4915274;28;39847;-78
2021/08/29 06:53:26;;;;;;;8.63;2.78;;;16.90;99.90;;;;;;4919749;28;38198;-77
2021/08/29 06:55:52;;;;;;;8.00;2.50;;;16.90;99.90;;;;;;4920429;28;38303;-78
2021/08/29 06:58:18;;;;;;;6.03;2.35;;;16.90;99.90;;;;;;4918843;28;37376;-78
2021/08/29 07:00:44;;;;;;;7.78;2.63;;;16.90;99.90;;;;;;4918758;28;39888;-77
2021/08/29 07:03:10;;;;;;;8.63;2.65;;;17.00;99.90;;;;;;4916498;28;38518;-78
2021/08/29 07:05:36;;;;;;;10.50;2.63;;;17.00;99.90;;;;;;4917479;28;38853;-78
2021/08/29 07:08:03;;;;;;;7.13;2.40;;;17.00;99.90;;;;;;4902950;29;38975;-77
2021/08/29 07:10:29;;;;;;;11.48;3.10;;;17.00;99.90;;;;;;4898611;29;39953;-78
2021/08/29 07:12:55;;;;;;;7.13;2.72;;;17.00;99.90;;;;;;4916145;28;38540;-78
2021/08/29 07:15:21;;;;;;;9.35;2.40;;;17.00;99.90;;;;;;4913899;28;36738;-78
2021/08/29 07:17:47;;;;;;;6.95;2.55;;;17.10;99.90;;;;;;4918864;28;37280;-78
2021/08/29 07:20:13;;;;;;;5.97;2.10;;;17.20;99.90;;;;;;4917199;28;38274;-79
2021/08/29 07:22:39;;;;;;;8.27;2.80;;;17.30;99.90;;;;;;4920553;28;39163;-77
2021/08/29 07:25:06;;;;;;;11.20;2.85;;;17.30;99.90;;;;;;4917916;28;36284;-78
2021/08/29 07:27:32;;;;;;;6.20;2.75;;;17.30;99.90;;;;;;4919361;28;37366;-78
2021/08/29 07:29:58;;;;;;;9.30;2.88;;;17.40;99.90;;;;;;4922033;28;39835;-78
2021/08/29 07:32:24;;;;;;;8.25;2.53;;;17.40;99.90;;;;;;4920391;28;39181;-78
2021/08/29 07:34:50;;;;;;;12.80;2.75;;;17.40;99.90;;;;;;4919501;28;38168;-78
2021/08/29 07:37:17;;;;;;;9.50;2.42;;;17.40;99.90;;;;;;4918342;28;37459;-78
2021/08/29 07:39:43;;;;;;;8.88;2.58;;;17.40;99.90;;;;;;4921666;29;38910;-78
2021/08/29 07:42:10;;;;;;;8.82;2.58;;;17.50;99.90;;;;;;4916518;28;38738;-78
2021/08/29 07:44:36;;;;;;;9.50;2.40;;;17.50;99.90;;;;;;4922272;28;38250;-79
2021/08/29 07:47:02;;;;;;;10.48;2.50;;;17.50;99.90;;;;;;4921393;28;37221;-77
2021/08/29 07:49:28;;;;;;;7.82;2.00;;;17.50;99.90;;;;;;4920999;29;38627;-77
2021/08/29 07:51:54;;;;;;;5.25;2.38;;;17.50;99.90;;;;;;4919785;28;38371;-77
2021/08/29 07:54:20;;;;;;;11.45;2.53;;;17.40;99.90;;;;;;4918409;28;37131;-77
2021/08/29 07:56:46;;;;;;;9.40;2.65;;;17.40;99.90;;;;;;4906062;29;36435;-76
2021/08/29 07:59:12;;;;;;;9.18;2.55;;;17.30;99.90;;;;;;4920493;29;37957;-76
2021/08/29 08:01:39;;;;;;;9.05;2.58;;;17.30;99.90;;;;;;4922978;28;37937;-76
2021/08/29 08:04:05;;;;;;;7.50;2.42;;;17.20;99.90;;;;;;4926604;28;38440;-76
2021/08/29 08:06:31;;;;;;;6.53;2.08;;;17.30;99.90;;;;;;4924205;28;35353;-76
2021/08/29 08:08:58;;;;;;;9.43;2.47;;;17.40;99.90;;;;;;4924769;28;39737;-77
2021/08/29 08:11:24;;;;;;;6.60;2.70;;;17.60;99.90;;;;;;4911388;29;39935;-76
2021/08/29 08:13:50;;;;;;;9.07;2.40;;;17.70;99.90;;;;;;4924667;29;38384;-76
2021/08/29 08:16:17;;;;;;;4.85;2.17;;;17.80;99.90;;;;;;4922242;28;38097;-76
2021/08/29 08:18:43;;;;;;;9.77;2.53;;;17.80;99.90;;;;;;4925274;28;37218;-76
2021/08/29 08:21:09;;;;;;;8.10;2.35;;;17.80;99.90;;;;;;4925516;28;38398;-77
2021/08/29 08:23:35;;;;;;;10.95;2.47;;;17.90;99.90;;;;;;4923322;28;39476;-79
2021/08/29 08:26:01;;;;;;;11.85;2.83;;;17.90;99.90;;;;;;4909352;29;37568;-78
2021/08/29 08:28:27;;;;;;;12.75;2.30;;;17.80;99.90;;;;;;4927410;29;48743;-78
2021/08/29 08:30:53;;;;;;;9.73;2.55;;;17.90;99.90;;;;;;4920343;29;39566;-78
2021/08/29 08:33:19;;;;;;;10.07;2.80;;;17.90;99.90;;;;;;4926311;29;38241;-79
2021/08/29 08:35:45;;;;;;;7.82;2.42;;;17.90;99.90;;;;;;4924947;29;37048;-78
2021/08/29 08:38:11;;;;;;;12.35;2.47;;;17.90;99.90;;;;;;4911376;28;37541;-79
2021/08/29 08:40:42;;;;;;;6.05;2.50;;;17.90;99.90;;;;;;4916077;29;39117;-78
2021/08/29 08:43:10;;;;;;;7.07;2.08;;;17.90;99.90;;;;;;4927909;29;38247;-78
2021/08/29 08:45:37;;;;;;;7.78;2.33;;;17.80;99.90;;;;;;4923058;28;37150;-78
2021/08/29 08:48:05;;;;;;;7.80;2.22;;;17.90;99.90;;;;;;4929319;28;39635;-77
2021/08/29 08:50:34;;;;;;;5.72;1.95;;;17.80;99.90;;;;;;4895901;29;39689;-78
2021/08/29 08:53:02;;;;;;;9.00;2.45;;;18.00;99.90;;;;;;4911110;29;39499;-78
2021/08/29 08:55:30;;;;;;;7.53;2.55;;;18.00;99.90;;;;;;4922613;28;48877;-78
2021/08/29 08:57:57;;;;;;;13.95;3.13;;;18.10;99.90;;;;;;4903994;28;39468;-78
2021/08/29 09:00:25;;;;;;;10.27;2.47;;;18.10;99.90;;;;;;4926838;28;37890;-78
2021/08/29 09:02:52;;;;;;;8.68;2.60;;;18.10;99.90;;;;;;4930644;29;39220;-78
2021/08/29 09:05:19;;;;;;;9.65;2.58;;;18.10;99.90;;;;;;4926766;29;37699;-78
2021/08/29 09:07:45;;;;;;;7.95;2.20;;;18.10;99.90;;;;;;4914845;29;38749;-78
2021/08/29 09:10:11;;;;;;;9.15;2.55;;;18.10;99.90;;;;;;4912049;29;38877;-78
2021/08/29 09:12:57;;;;;;;8.18;2.40;;;18.10;99.90;;;;;;4919027;28;38405;-78
2021/08/29 09:15:23;;;;;;;9.68;3.10;;;18.10;99.90;;;;;;4918863;29;36931;-78
2021/08/29 09:17:50;;;;;;;11.02;3.05;;;18.10;99.90;;;;;;4932114;29;38613;-78
2021/08/29 09:20:28;;;;;;;6.43;2.30;;;18.00;99.90;;;;;;4930737;29;38094;-77
2021/08/29 09:23:00;;;;;;;10.15;2.63;;;17.90;99.90;;;;;;4933042;29;38271;-78
2021/08/29 09:25:31;;;;;;;11.27;3.25;;;18.00;99.90;;;;;;4930883;29;38651;-78
2021/08/29 09:28:00;;;;;;;8.95;2.50;;;18.00;99.90;;;;;;4914392;29;39247;-79
2021/08/29 09:30:31;;;;;;;9.10;2.72;;;18.00;99.90;;;;;;4939640;28;47975;-78
2021/08/29 09:33:00;;;;;;;10.30;2.80;;;18.00;99.90;;;;;;4913068;29;38915;-78
2021/08/29 09:35:32;;;;;;;13.20;3.00;;;17.90;99.90;;;;;;4926846;28;47539;-78
2021/08/29 09:37:59;;;;;;;17.85;2.58;;;17.80;99.90;;;;;;4931932;29;39023;-78
2021/08/29 09:40:31;;;;;;;10.15;2.80;;;17.70;99.90;;;;;;4930939;28;38343;-78
2021/08/29 09:42:59;;;;;;;6.13;2.47;;;17.70;99.90;;;;;;4919802;29;38190;-78
2021/08/29 09:45:30;;;;;;;8.90;2.75;;;17.70;99.90;;;;;;4912584;29;36836;-78
2021/08/29 09:48:03;;;;;;;9.77;2.88;;;17.80;99.90;;;;;;4911515;29;39231;-78
2021/08/29 09:50:30;;;;;;;9.38;2.80;;;17.80;99.90;;;;;;4930068;28;47859;-78
2021/08/29 09:53:14;;;;;;;10.40;2.63;;;17.80;99.90;;;;;;4927049;29;38638;-78
2021/08/29 09:55:42;;;;;;;12.77;3.00;;;17.90;99.90;;;;;;4929723;28;48677;-78
2021/08/29 09:58:25;;;;;;;13.70;3.00;;;18.00;99.90;;;;;;4912763;29;40236;-78
2021/08/29 10:01:12;;;;;;;9.90;3.33;;;18.00;99.90;;;;;;4932846;28;38794;-78
2021/08/29 10:03:45;;;;;;;13.77;3.42;;;18.00;99.90;;;;;;4932437;28;47123;-78
2021/08/29 10:06:28;;;;;;;13.52;2.80;;;18.00;99.90;;;;;;4924958;28;37725;-78
2021/08/29 10:08:59;;;;;;;7.45;2.65;;;18.00;99.90;;;;;;4930764;29;38968;-78
2021/08/29 10:11:30;;;;;;;11.50;3.08;;;18.00;99.90;;;;;;4912431;29;39423;-78
2021/08/29 10:13:58;;;;;;;9.68;3.10;;;18.10;99.90;;;;;;4918844;29;38174;-78
2021/08/29 10:16:29;;;;;;;10.65;2.92;;;18.10;99.90;;;;;;4911567;29;37247;-78
2021/08/29 10:18:57;;;;;;;9.20;2.80;;;18.10;99.90;;;;;;4895752;29;40506;-78
2021/08/29 10:21:25;;;;;;;12.45;3.00;;;17.90;99.90;;;;;;4906872;28;38623;-78
2021/08/29 10:23:54;;;;;;;15.75;3.08;;;17.80;99.90;;;;;;4932584;29;39130;-78
2021/08/29 10:26:23;;;;;;;9.57;2.70;;;17.80;99.90;;;;;;4899020;29;38336;-78
2021/08/29 10:28:58;;;;;;;11.60;3.35;;;17.80;99.90;;;;;;4920486;29;39018;-78
2021/08/29 10:31:31;;;;;;;9.52;3.33;;;17.80;99.90;;;;;;4928870;28;38301;-78
2021/08/29 10:34:00;;;;;;;12.68;2.75;;;17.90;99.90;;;;;;4919491;29;39695;-78
2021/08/29 10:36:27;;;;;;;8.07;2.60;;;18.00;99.90;;;;;;4930438;29;49228;-78
2021/08/29 10:38:53;;;;;;;13.02;3.08;;;18.10;99.90;;;;;;4946198;28;39778;-78
2021/08/29 10:41:21;;;;;;;11.45;2.92;;;18.30;99.90;;;;;;4916503;28;38594;-79
2021/08/29 10:43:51;;;;;;;11.23;2.70;;;18.40;99.90;;;;;;4929575;29;39869;-78
2021/08/29 10:46:19;;;;;;;12.73;2.90;;;18.50;99.90;;;;;;4927918;28;38869;-78
2021/08/29 10:48:51;;;;;;;11.90;3.05;;;18.60;99.90;;;;;;4914585;29;40688;-76
2021/08/29 10:51:19;;;;;;;10.15;2.63;;;18.50;99.90;;;;;;4929612;28;38372;-78
2021/08/29 10:53:53;;;;;;;10.00;3.00;;;18.40;99.90;;;;;;4930472;29;38750;-78
2021/08/29 10:56:22;;;;;;;13.55;2.83;;;18.40;99.90;;;;;;4930455;28;37187;-78
2021/08/29 10:59:08;;;;;;;11.30;2.38;;;18.40;99.90;;;;;;4929445;28;39289;-78
2021/08/29 11:01:45;;;;;;;9.25;2.28;;;18.40;99.90;;;;;;4929760;29;48630;-78
2021/08/29 11:04:17;;;;;;;8.68;2.67;;;18.40;99.90;;;;;;4912858;29;39619;-78
2021/08/29 11:06:56;;;;;;;9.82;2.50;;;18.30;99.90;;;;;;4928592;28;37745;-78
2021/08/29 11:09:32;;;;;;;7.85;2.58;;;18.40;99.90;;;;;;4917289;29;38741;-78
2021/08/29 11:11:59;;;;;;;9.50;2.28;;;18.30;99.90;;;;;;4918430;28;39048;-78
2021/08/29 11:14:52;;;;;;;11.52;2.28;;;18.20;99.90;;;;;;4913075;29;38254;-78
2021/08/29 11:17:22;;;;;;;13.65;2.58;;;18.20;99.90;;;;;;4918331;29;37293;-78
2021/08/29 11:19:50;;;;;;;9.68;2.50;;;18.20;99.90;;;;;;4930560;29;39894;-77
2021/08/29 11:22:19;;;;;;;7.68;2.55;;;18.00;99.90;;;;;;4904227;29;38528;-77
2021/08/29 11:25:07;;;;;;;11.10;2.63;;;17.90;99.90;;;;;;4909995;29;38465;-78
2021/08/29 11:27:39;;;;;;;13.10;2.70;;;17.90;99.90;;;;;;4918637;28;48904;-77
2021/08/29 11:30:05;;;;;;;10.38;2.35;;;17.80;99.90;;;;;;4926184;28;39411;-78
2021/08/29 11:32:34;;;;;;;11.73;2.55;;;17.80;99.90;;;;;;4928621;28;38298;-78
2021/08/29 11:35:05;;;;;;;8.25;2.33;;;17.70;99.90;;;;;;4929048;29;38441;-77
2021/08/29 11:37:32;;;;;;;10.73;2.33;;;17.60;99.90;;;;;;4929751;29;49590;-78
2021/08/29 11:40:03;;;;;;;11.75;2.90;;;17.60;99.90;;;;;;4929729;29;40210;-78
2021/08/29 11:42:29;;;;;;;11.63;3.40;;;17.50;99.90;;;;;;4930023;29;47877;-78
2021/08/29 11:44:57;;;;;;;10.38;3.13;;;17.40;99.90;;;;;;4929816;28;37899;-77
2021/08/29 11:47:24;;;;;;;10.27;2.60;;;17.40;99.90;;;;;;4948112;28;37192;-78
2021/08/29 11:49:56;;;;;;;11.73;2.83;;;17.30;99.90;;;;;;4918553;29;40448;-77
2021/08/29 11:52:30;;;;;;;12.18;2.47;;;17.20;99.90;;;;;;4928248;28;37740;-78
2021/08/29 11:55:13;;;;;;;9.75;2.15;;;17.20;99.90;;;;;;4929185;29;38840;-78
2021/08/29 11:57:48;;;;;;;10.23;2.40;;;17.40;99.90;;;;;;4909865;29;47378;-78
2021/08/29 12:00:15;;;;;;;11.10;2.25;;;17.50;99.90;;;;;;4910048;29;39243;-78
2021/08/29 12:02:43;;;;;;;11.20;2.42;;;17.60;99.90;;;;;;4934225;28;37813;-77
2021/08/29 12:05:17;;;;;;;14.45;3.08;;;17.60;99.90;;;;;;4947605;28;38012;-77
2021/08/29 12:07:46;;;;;;;14.35;3.22;;;17.70;99.90;;;;;;4929633;29;36970;-77
2021/08/29 12:10:15;;;;;;;13.70;3.47;;;17.80;99.90;;;;;;4928248;29;38930;-77
2021/08/29 12:12:45;;;;;;;10.60;2.42;;;17.80;99.90;;;;;;4912834;29;38656;-77
2021/08/29 12:15:13;;;;;;;12.95;2.47;;;17.80;99.90;;;;;;4927301;29;38240;-78
2021/08/29 12:17:40;;;;;;;11.50;3.05;;;17.70;99.90;;;;;;4927912;29;37383;-78
2021/08/29 12:20:08;;;;;;;10.32;2.90;;;17.70;99.90;;;;;;4926917;28;39184;-77
2021/08/29 12:22:36;;;;;;;14.65;4.13;;;17.70;99.90;;;;;;4927561;29;37722;-78
2021/08/29 12:25:02;;;;;;;15.50;3.30;;;17.70;99.90;;;;;;4895995;29;38490;-78
2021/08/29 12:27:29;;;;;;;9.52;2.83;;;17.60;99.90;;;;;;4911013;29;38789;-78
2021/08/29 12:29:58;;;;;;;11.05;2.97;;;17.70;99.90;;;;;;4908251;29;38337;-79
2021/08/29 12:32:30;;;;;;;13.38;2.92;;;17.70;99.90;;;;;;4921487;28;39148;-79
2021/08/29 12:35:04;;;;;;;13.48;3.22;;;17.60;99.90;;;;;;4926442;29;38062;-79
2021/08/29 12:37:33;;;;;;;14.13;3.22;;;17.50;99.90;;;;;;4928068;28;48623;-79
2021/08/29 12:40:06;;;;;;;13.13;2.55;;;17.50;99.90;;;;;;4910958;29;38871;-78
2021/08/29 12:42:41;;;;;;;18.88;3.45;;;17.50;99.90;;;;;;4919916;29;48932;-78
2021/08/29 12:45:10;;;;;;;9.88;3.00;;;17.50;99.90;;;;;;4925129;28;38168;-78
2021/08/29 12:47:38;;;;;;;11.13;3.40;;;17.40;99.90;;;;;;4898719;29;36955;-78